North Mankato, Minnesota
Current Conditions -  °F | °C
As of 6:35 AM on Sunday 23 Nov 2014 (Local Time) from KMKT Reporting Station
Overcast Overcast  
Wind Chill: 52°   Ceiling: 600
Heat Index: 52°   Visibility: 6mi
Dew Point: 46°   Wind: 12mph
Humidity: 82%   Direction: 200°SSW
Pressure: 29.45"   Gusts: NA
Location:  44.17°N, 94.01°W
Report Text: KMKT 231235Z AUTO 20010KT 6SM OVC006 11/08 A2945 RMK AO1
Loading
Personal Weather Stations






























Interactive Weather Map New forecast layout! Learn more

10-Day Weather Forecast

Advertisements
Track Severe Weather on mobile